createdAt,value
2022-08-03T00:01:24.121Z,20.98
2022-08-03T00:04:34.158Z,20.98
2022-08-03T00:07:41.289Z,20.97
2022-08-03T00:10:47.824Z,20.95
2022-08-03T00:13:54.174Z,20.93
2022-08-03T00:17:00.787Z,20.91
2022-08-03T00:20:07.867Z,20.89
2022-08-03T00:23:13.916Z,20.87
2022-08-03T00:26:18.306Z,20.87
2022-08-03T00:29:24.427Z,20.83
2022-08-03T00:32:30.503Z,20.83
2022-08-03T00:35:51.056Z,20.82
2022-08-03T00:38:57.586Z,20.79
2022-08-03T00:42:06.982Z,20.77
2022-08-03T00:45:13.622Z,20.73
2022-08-03T00:48:33.433Z,20.69
2022-08-03T00:51:39.966Z,20.66
2022-08-03T00:54:44.643Z,20.63
2022-08-03T00:57:51.348Z,20.59
2022-08-03T01:00:57.624Z,20.59
2022-08-03T01:04:03.934Z,20.57
2022-08-03T01:07:18.322Z,20.54
2022-08-03T01:10:37.090Z,20.51
2022-08-03T01:14:03.589Z,20.47
2022-08-03T01:17:21.862Z,20.44
2022-08-03T01:20:34.016Z,20.41
2022-08-03T01:23:56.732Z,20.38
2022-08-03T01:27:14.191Z,20.35
2022-08-03T01:30:20.486Z,20.33
2022-08-03T01:33:35.759Z,20.31
2022-08-03T01:36:50.230Z,20.29
2022-08-03T01:39:57.783Z,20.27
2022-08-03T01:43:07.849Z,20.25
2022-08-03T01:46:16.071Z,20.21
2022-08-03T01:49:22.385Z,20.18
2022-08-03T01:52:30.340Z,20.13
2022-08-03T01:55:39.262Z,20.08
2022-08-03T01:58:47.650Z,20.06
2022-08-03T02:02:28.813Z,20.03
2022-08-03T02:05:22.227Z,20.01
2022-08-03T02:08:30.310Z,20.00
2022-08-03T02:11:39.002Z,19.99
2022-08-03T02:14:47.018Z,19.95
2022-08-03T02:17:54.689Z,19.92
2022-08-03T02:21:02.443Z,19.91
2022-08-03T02:24:17.134Z,19.89
2022-08-03T02:27:30.811Z,19.87
2022-08-03T02:30:39.735Z,19.84
2022-08-03T02:33:50.745Z,19.80
2022-08-03T02:37:00.413Z,19.77
2022-08-03T02:40:10.822Z,19.75
2022-08-03T02:43:22.956Z,19.73
2022-08-03T02:46:48.413Z,19.71
2022-08-03T02:49:56.085Z,19.68
2022-08-03T02:53:03.112Z,19.64
2022-08-03T02:56:11.003Z,19.61
2022-08-03T02:59:19.527Z,19.57
2022-08-03T03:02:26.491Z,19.54
2022-08-03T03:05:52.729Z,19.52
2022-08-03T03:09:00.754Z,19.50
2022-08-03T03:12:09.048Z,19.49
2022-08-03T03:15:15.403Z,19.48
2022-08-03T03:18:23.211Z,19.48
2022-08-03T03:21:32.187Z,19.47
2022-08-03T03:24:39.542Z,19.45
2022-08-03T03:27:50.790Z,19.43
2022-08-03T03:30:57.268Z,19.42
2022-08-03T03:34:04.032Z,19.41
2022-08-03T03:37:10.279Z,19.41
2022-08-03T03:40:17.014Z,19.42
2022-08-03T03:43:24.474Z,19.42
2022-08-03T03:46:31.326Z,19.41
2022-08-03T03:49:37.602Z,19.40
2022-08-03T03:52:43.771Z,19.37
2022-08-03T03:55:59.540Z,19.35
2022-08-03T03:59:08.966Z,19.30
2022-08-03T04:02:15.377Z,19.30
2022-08-03T04:05:42.878Z,19.30
2022-08-03T04:09:14.732Z,19.31
2022-08-03T04:12:24.305Z,19.33
2022-08-03T04:15:32.784Z,19.35
2022-08-03T04:18:42.826Z,19.38
2022-08-03T04:21:53.167Z,19.40
2022-08-03T04:25:08.519Z,19.44
2022-08-03T04:28:30.708Z,19.46
2022-08-03T04:31:39.825Z,19.50
2022-08-03T04:34:46.606Z,19.56
2022-08-03T04:37:56.609Z,19.64
2022-08-03T04:41:03.428Z,19.73
2022-08-03T04:44:10.586Z,19.83
2022-08-03T04:47:17.265Z,19.94
2022-08-03T04:50:25.002Z,20.09
2022-08-03T04:53:31.761Z,20.23
2022-08-03T04:56:40.738Z,20.25
2022-08-03T04:59:49.410Z,20.22
2022-08-03T05:02:55.938Z,20.25
2022-08-03T05:06:11.077Z,20.37
2022-08-03T05:09:16.245Z,20.59
2022-08-03T05:12:42.695Z,20.81
2022-08-03T05:15:49.393Z,21.10
2022-08-03T05:18:55.558Z,21.37
2022-08-03T05:22:02.056Z,21.62
2022-08-03T05:25:09.174Z,21.90
2022-08-03T05:28:23.282Z,22.20
2022-08-03T05:31:29.422Z,22.44
2022-08-03T05:34:35.604Z,22.69
2022-08-03T05:37:42.438Z,22.93
2022-08-03T05:41:22.580Z,23.12
2022-08-03T05:44:27.363Z,23.23
2022-08-03T05:47:33.506Z,23.31
2022-08-03T05:50:42.770Z,23.36
2022-08-03T05:53:49.351Z,23.44
2022-08-03T05:56:55.578Z,23.54
2022-08-03T06:00:01.852Z,23.68
2022-08-03T06:03:08.108Z,23.81
2022-08-03T06:06:14.679Z,23.95
2022-08-03T06:09:20.790Z,24.12
2022-08-03T06:12:29.112Z,24.33
2022-08-03T06:15:35.599Z,24.59
2022-08-03T06:18:41.936Z,24.87
2022-08-03T06:21:47.923Z,25.16
2022-08-03T06:24:54.754Z,25.44
2022-08-03T06:40:41.258Z,25.25
2022-08-03T06:44:02.913Z,25.36
2022-08-03T06:47:10.647Z,25.49
2022-08-03T06:50:19.045Z,25.58
2022-08-03T06:53:26.859Z,25.64
2022-08-03T06:56:33.042Z,25.70
2022-08-03T07:00:07.774Z,25.77
2022-08-03T07:03:05.684Z,25.88
2022-08-03T07:06:12.002Z,25.96
2022-08-03T07:09:18.125Z,26.05
2022-08-03T07:12:24.315Z,26.15
2022-08-03T07:15:55.111Z,26.25
2022-08-03T07:18:57.216Z,26.36
2022-08-03T07:22:04.294Z,26.53
2022-08-03T07:25:12.019Z,26.73
2022-08-03T07:28:18.224Z,26.90
2022-08-03T07:31:24.455Z,27.07
2022-08-03T07:34:30.762Z,27.25
2022-08-03T07:37:37.072Z,27.42
2022-08-03T07:40:46.305Z,27.60
2022-08-03T07:43:52.739Z,27.80
2022-08-03T07:46:58.919Z,27.97
2022-08-03T07:50:11.510Z,28.10
2022-08-03T07:53:17.877Z,28.25
2022-08-03T07:56:25.017Z,28.42
2022-08-03T07:59:31.103Z,28.51
2022-08-03T08:02:57.248Z,28.53
2022-08-03T08:06:03.410Z,28.57
2022-08-03T08:09:09.817Z,28.63
2022-08-03T08:12:16.490Z,28.71
2022-08-03T08:15:23.005Z,28.80
2022-08-03T08:18:29.817Z,28.89
2022-08-03T08:21:53.673Z,28.95
2022-08-03T08:25:02.329Z,29.03
2022-08-03T08:28:30.807Z,29.15
2022-08-03T08:31:34.833Z,29.27
2022-08-03T08:34:41.089Z,29.34
2022-08-03T08:37:51.237Z,29.42
2022-08-03T08:40:59.586Z,29.44
2022-08-03T08:44:08.297Z,29.45
2022-08-03T08:47:15.577Z,29.51
2022-08-03T08:50:27.953Z,29.60
2022-08-03T08:53:37.419Z,29.72
2022-08-03T08:56:45.045Z,29.82
2022-08-03T08:59:54.528Z,29.92
2022-08-03T09:03:03.973Z,30.00
2022-08-03T09:06:10.319Z,30.06
2022-08-03T09:10:08.134Z,30.12
2022-08-03T09:12:46.511Z,30.15
2022-08-03T09:16:11.448Z,30.21
2022-08-03T09:19:17.740Z,30.27
2022-08-03T09:22:23.933Z,30.23
2022-08-03T09:25:35.251Z,30.11
2022-08-03T09:29:00.518Z,29.99
2022-08-03T09:32:08.528Z,29.97
2022-08-03T09:35:16.058Z,30.03
2022-08-03T09:38:24.340Z,30.10
2022-08-03T09:41:30.494Z,30.04
2022-08-03T09:44:39.989Z,29.86
2022-08-03T09:47:46.175Z,29.71
2022-08-03T09:50:58.677Z,29.62
2022-08-03T09:54:29.390Z,29.56
2022-08-03T09:57:35.643Z,29.47
2022-08-03T10:00:56.954Z,29.41
2022-08-03T10:04:05.196Z,29.39
2022-08-03T10:07:12.239Z,29.44
2022-08-03T10:10:30.226Z,29.51
2022-08-03T10:13:39.386Z,29.58
2022-08-03T10:16:46.284Z,29.69
2022-08-03T10:19:52.687Z,29.89
2022-08-03T10:22:59.990Z,30.13
2022-08-03T10:26:09.039Z,30.28
2022-08-03T10:29:20.266Z,30.35
2022-08-03T10:32:31.798Z,30.34
2022-08-03T10:35:41.305Z,30.30
2022-08-03T10:38:53.415Z,30.27
2022-08-03T10:42:02.875Z,30.21
2022-08-03T10:45:16.480Z,30.21
2022-08-03T10:48:23.711Z,30.28
2022-08-03T10:51:32.335Z,30.43
2022-08-03T10:55:07.507Z,30.57
2022-08-03T10:58:25.202Z,30.55
2022-08-03T11:02:00.850Z,30.41
2022-08-03T11:05:30.252Z,30.27
2022-08-03T11:08:36.993Z,30.14
2022-08-03T11:11:44.453Z,30.02
2022-08-03T11:14:51.834Z,29.96
2022-08-03T11:18:11.717Z,30.00
2022-08-03T11:21:18.071Z,30.07
2022-08-03T11:25:00.695Z,30.11
2022-08-03T11:28:33.770Z,30.13
2022-08-03T11:31:59.311Z,30.21
2022-08-03T11:35:13.371Z,30.34
2022-08-03T11:38:24.766Z,30.44
2022-08-03T11:41:44.852Z,30.57
2022-08-03T11:44:52.450Z,30.66
2022-08-03T11:47:59.491Z,30.74
2022-08-03T11:51:07.236Z,30.84
2022-08-03T11:54:13.611Z,31.01
2022-08-03T11:59:16.469Z,31.20
2022-08-03T12:01:07.888Z,31.41
2022-08-03T12:04:13.782Z,31.47
2022-08-03T12:07:24.978Z,31.37
2022-08-03T12:10:51.711Z,31.22
2022-08-03T12:14:50.041Z,31.21
2022-08-03T12:17:24.305Z,31.21
2022-08-03T12:20:35.398Z,31.18
2022-08-03T12:23:41.882Z,31.10
2022-08-03T12:26:59.303Z,30.98
2022-08-03T12:30:07.180Z,30.81
2022-08-03T12:33:29.906Z,30.63
2022-08-03T12:36:38.301Z,30.55
2022-08-03T12:40:02.743Z,30.56
2022-08-03T12:43:17.455Z,30.59
2022-08-03T12:46:24.178Z,30.65
2022-08-03T12:49:30.721Z,30.67
2022-08-03T12:52:46.161Z,30.68
2022-08-03T12:56:06.065Z,30.72
2022-08-03T12:59:40.483Z,30.76
2022-08-03T13:02:56.357Z,30.80
2022-08-03T13:06:16.194Z,30.89
2022-08-03T13:09:22.615Z,30.94
2022-08-03T13:12:30.978Z,30.85
2022-08-03T13:15:47.651Z,30.73
2022-08-03T13:18:56.363Z,30.73
2022-08-03T13:22:04.704Z,30.80
2022-08-03T13:25:11.350Z,30.89
2022-08-03T13:28:17.810Z,30.99
2022-08-03T13:31:23.998Z,31.03
2022-08-03T13:34:32.515Z,30.99
2022-08-03T13:37:39.569Z,30.77
2022-08-03T13:40:46.101Z,30.50
2022-08-03T13:44:25.121Z,30.36
2022-08-03T13:47:23.212Z,30.33
2022-08-03T13:50:30.134Z,30.34
2022-08-03T14:07:30.699Z,29.84
2022-08-03T14:10:38.587Z,29.81
2022-08-03T14:13:44.786Z,29.80
2022-08-03T14:16:50.927Z,29.80
2022-08-03T14:20:02.430Z,29.76
2022-08-03T14:23:20.808Z,29.70
2022-08-03T14:26:27.993Z,29.62
2022-08-03T14:29:34.270Z,29.54
2022-08-03T14:32:40.611Z,29.51
2022-08-03T14:35:46.915Z,29.47
2022-08-03T14:38:53.116Z,29.43
2022-08-03T14:41:59.263Z,29.37
2022-08-03T14:45:09.566Z,29.29
2022-08-03T14:50:29.095Z,29.20
2022-08-03T14:51:54.144Z,29.18
2022-08-03T14:55:01.410Z,29.21
2022-08-03T14:58:19.598Z,29.27
2022-08-03T15:02:02.138Z,29.33
2022-08-03T15:04:53.716Z,29.36
2022-08-03T15:07:59.934Z,29.35
2022-08-03T15:11:06.379Z,29.34
2022-08-03T15:14:13.471Z,29.33
2022-08-03T15:17:21.257Z,29.29
2022-08-03T15:20:42.673Z,29.28
2022-08-03T15:23:50.419Z,29.24
2022-08-03T15:26:56.582Z,29.15
2022-08-03T15:30:10.129Z,29.12
2022-08-03T15:33:16.715Z,29.11
2022-08-03T15:36:22.991Z,29.09
2022-08-03T15:39:29.521Z,29.03
2022-08-03T15:42:36.308Z,28.96
2022-08-03T15:45:43.076Z,28.85
2022-08-03T15:48:49.670Z,28.71
2022-08-03T15:51:56.486Z,28.58
2022-08-03T15:55:02.652Z,28.47
2022-08-03T15:59:10.684Z,28.41
2022-08-03T16:01:35.014Z,28.34
2022-08-03T16:04:41.334Z,28.28
2022-08-03T16:08:02.880Z,28.23
2022-08-03T16:11:10.312Z,28.16
2022-08-03T16:14:32.444Z,28.11
2022-08-03T16:17:42.224Z,28.09
2022-08-03T16:20:48.734Z,28.06
2022-08-03T16:23:54.914Z,28.00
2022-08-03T16:27:02.443Z,27.95
2022-08-03T16:30:10.339Z,27.89
2022-08-03T16:33:18.018Z,27.82
2022-08-03T16:36:24.286Z,27.76
2022-08-03T16:39:30.471Z,27.68
2022-08-03T16:42:38.826Z,27.61
2022-08-03T16:45:45.087Z,27.58
2022-08-03T16:48:51.154Z,27.54
2022-08-03T16:51:57.291Z,27.51
2022-08-03T16:55:05.806Z,27.47
2022-08-03T16:58:15.344Z,27.44
2022-08-03T17:01:25.008Z,27.37
2022-08-03T17:04:41.834Z,27.31
2022-08-03T17:07:53.859Z,27.25
2022-08-03T17:11:00.303Z,27.21
2022-08-03T17:14:09.605Z,27.16
2022-08-03T17:17:21.766Z,27.09
2022-08-03T17:20:29.935Z,27.03
2022-08-03T17:23:46.316Z,26.98
2022-08-03T17:26:54.676Z,26.93
2022-08-03T17:30:07.955Z,26.87
2022-08-03T17:33:20.332Z,26.79
2022-08-03T17:36:41.877Z,26.69
2022-08-03T17:39:59.494Z,26.59
2022-08-03T17:44:14.048Z,26.50
2022-08-03T17:46:32.388Z,26.39
2022-08-03T17:49:40.058Z,26.30
2022-08-03T17:52:50.343Z,26.19
2022-08-03T17:56:42.431Z,26.08
2022-08-03T17:59:53.001Z,25.95
2022-08-03T18:03:18.494Z,25.83
2022-08-03T18:06:30.421Z,25.70
2022-08-03T18:10:04.807Z,25.56
2022-08-03T18:13:12.038Z,25.41
2022-08-03T18:16:26.099Z,25.35
2022-08-03T18:20:03.482Z,25.72
2022-08-03T18:23:04.690Z,26.08
2022-08-03T18:26:12.686Z,26.17
2022-08-03T18:29:20.204Z,25.80
2022-08-03T18:32:29.465Z,25.41
2022-08-03T18:35:53.388Z,25.10
2022-08-03T18:39:02.592Z,24.97
2022-08-03T18:42:09.384Z,25.31
2022-08-03T18:45:57.190Z,25.58
2022-08-03T18:49:08.059Z,25.71
2022-08-03T18:52:27.595Z,25.78
2022-08-03T18:55:36.666Z,25.83
2022-08-03T19:02:30.444Z,25.22
2022-08-03T19:05:56.243Z,24.78
2022-08-03T19:09:16.968Z,24.57
2022-08-03T19:12:31.070Z,24.82
2022-08-03T19:15:51.279Z,25.04
2022-08-03T19:19:00.634Z,25.15
2022-08-03T19:22:10.519Z,25.22
2022-08-03T19:25:17.813Z,25.25
2022-08-03T19:28:29.985Z,25.26
2022-08-03T19:31:40.642Z,25.25
2022-08-03T19:35:13.210Z,25.25
2022-08-03T19:38:28.594Z,25.24
2022-08-03T19:41:42.104Z,25.09
2022-08-03T19:44:56.623Z,24.56
2022-08-03T19:48:09.952Z,24.06
2022-08-03T19:51:16.586Z,23.80
2022-08-03T19:54:29.699Z,24.01
2022-08-03T19:57:42.249Z,24.22
2022-08-03T20:00:49.773Z,24.31
2022-08-03T20:03:55.877Z,24.36
2022-08-03T20:07:03.014Z,24.37
2022-08-03T20:10:10.235Z,24.38
2022-08-03T20:13:19.519Z,24.38
2022-08-03T20:16:26.145Z,24.38
2022-08-03T20:19:32.456Z,24.38
2022-08-03T20:22:43.204Z,24.37
2022-08-03T20:25:58.611Z,24.34
2022-08-03T20:29:10.225Z,24.31
2022-08-03T20:32:17.461Z,24.28
2022-08-03T20:35:23.804Z,24.24
2022-08-03T20:38:30.622Z,24.20
2022-08-03T20:41:37.326Z,24.15
2022-08-03T20:44:43.622Z,24.10
2022-08-03T20:48:05.773Z,24.05
2022-08-03T20:51:19.357Z,24.00
2022-08-03T20:54:29.325Z,23.95
2022-08-03T20:57:37.638Z,23.88
2022-08-03T21:00:47.942Z,23.82
2022-08-03T21:03:57.504Z,23.77
2022-08-03T21:07:09.804Z,23.72
2022-08-03T21:10:28.413Z,23.66
2022-08-03T21:13:08.888Z,25.76
2022-08-03T21:13:40.543Z,23.61
2022-08-03T21:16:51.072Z,23.56
2022-08-03T21:19:58.551Z,23.51
2022-08-03T21:23:04.789Z,23.47
2022-08-03T21:26:12.271Z,23.44
2022-08-03T21:29:18.913Z,23.41
2022-08-03T21:32:32.407Z,23.37
2022-08-03T21:35:39.444Z,23.33
2022-08-03T21:38:56.877Z,23.28
2022-08-03T21:42:03.659Z,23.22
2022-08-03T21:45:17.170Z,23.16
2022-08-03T21:48:25.662Z,23.13
2022-08-03T21:51:34.305Z,23.10
2022-08-03T21:54:42.548Z,23.06
2022-08-03T21:57:54.846Z,23.02
2022-08-03T22:01:04.402Z,22.98
2022-08-03T22:04:11.988Z,22.93
2022-08-03T22:07:38.280Z,22.86
2022-08-03T22:10:46.947Z,22.80
2022-08-03T22:13:53.323Z,22.75
2022-08-03T22:16:59.722Z,22.70
2022-08-03T22:20:08.802Z,22.66
2022-08-03T22:23:21.173Z,22.64
2022-08-03T22:26:32.283Z,22.60
2022-08-03T22:29:43.504Z,22.58
2022-08-03T22:32:50.784Z,22.55
2022-08-03T22:36:01.556Z,22.52
2022-08-03T22:39:08.035Z,22.47
2022-08-03T22:42:15.143Z,22.43
2022-08-03T22:46:06.981Z,22.40
2022-08-03T22:48:49.690Z,22.35
2022-08-03T22:51:57.327Z,22.30
2022-08-03T22:55:06.577Z,22.25
2022-08-03T22:58:15.583Z,22.19
2022-08-03T23:01:24.725Z,22.16
2022-08-03T23:04:33.094Z,22.11
2022-08-03T23:07:40.870Z,22.07
2022-08-03T23:10:49.987Z,22.03
2022-08-03T23:13:57.870Z,21.98
2022-08-03T23:17:06.199Z,21.95
2022-08-03T23:20:14.230Z,21.93
2022-08-03T23:23:21.754Z,21.91
2022-08-03T23:26:31.634Z,21.85
2022-08-03T23:29:39.419Z,21.81
2022-08-03T23:32:47.017Z,21.77
2022-08-03T23:36:28.619Z,21.73
2022-08-03T23:39:35.081Z,21.68
2022-08-03T23:42:42.496Z,21.65
2022-08-03T23:45:50.663Z,21.62
2022-08-03T23:48:58.119Z,21.59
2022-08-03T23:52:09.926Z,21.56
2022-08-03T23:55:23.482Z,21.53
2022-08-03T23:58:43.994Z,21.47
